createdAt,value
2023-06-10T00:00:45.596Z,21.3
2023-06-10T00:03:16.427Z,21.2
2023-06-10T00:05:46.952Z,21.3
2023-06-10T00:08:17.538Z,21.4
2023-06-10T00:10:47.985Z,21.4
2023-06-10T00:13:18.646Z,21.3
2023-06-10T00:15:49.333Z,21.4
2023-06-10T00:18:20.144Z,21.2
2023-06-10T00:20:50.981Z,21.2
2023-06-10T00:23:22.224Z,21
2023-06-10T00:25:52.653Z,21.1
2023-06-10T00:28:23.514Z,21
2023-06-10T00:30:54.664Z,21
2023-06-10T00:33:25.331Z,21
2023-06-10T00:35:54.500Z,21
2023-06-10T00:38:25.168Z,20.8
2023-06-10T00:40:56.001Z,20.8
2023-06-10T00:43:26.526Z,20.7
2023-06-10T00:45:58.289Z,20.8
2023-06-10T00:48:31.746Z,20.9
2023-06-10T00:51:02.828Z,20.9
2023-06-10T00:53:33.857Z,20.9
2023-06-10T00:56:04.345Z,20.9
2023-06-10T00:58:35.392Z,20.8
2023-06-10T01:01:06.508Z,20.9
2023-06-10T01:03:37.367Z,20.9
2023-06-10T01:06:07.997Z,20.9
2023-06-10T01:08:38.787Z,20.8
2023-06-10T01:11:09.211Z,20.7
2023-06-10T01:13:39.469Z,20.5
2023-06-10T01:16:10.648Z,20.6
2023-06-10T01:18:41.428Z,20.7
2023-06-10T01:21:12.415Z,20.6
2023-06-10T01:23:43.242Z,20.6
2023-06-10T01:26:13.885Z,20.7
2023-06-10T01:28:45.148Z,20.6
2023-06-10T01:31:15.913Z,20.5
2023-06-10T01:33:46.590Z,20.4
2023-06-10T01:36:17.145Z,20.4
2023-06-10T01:38:47.810Z,20.4
2023-06-10T01:41:18.576Z,20.3
2023-06-10T01:43:49.107Z,20.2
2023-06-10T01:46:20.132Z,20.3
2023-06-10T01:48:50.902Z,20.3
2023-06-10T01:51:22.142Z,20.2
2023-06-10T01:53:53.000Z,20.1
2023-06-10T01:56:23.673Z,20
2023-06-10T01:58:54.629Z,20
2023-06-10T02:01:25.458Z,20
2023-06-10T02:03:56.107Z,19.9
2023-06-10T02:06:26.561Z,20
2023-06-10T02:08:56.846Z,20
2023-06-10T02:11:27.585Z,20
2023-06-10T02:13:57.970Z,19.9
2023-06-10T02:16:28.504Z,19.9
2023-06-10T02:18:59.158Z,19.9
2023-06-10T02:21:30.189Z,19.9
2023-06-10T02:24:01.464Z,19.8
2023-06-10T02:26:32.219Z,20
2023-06-10T02:29:02.933Z,19.9
2023-06-10T02:31:34.337Z,19.8
2023-06-10T02:34:05.197Z,19.8
2023-06-10T02:36:35.586Z,19.7
2023-06-10T02:39:06.644Z,19.8
2023-06-10T02:41:37.310Z,19.7
2023-06-10T02:44:08.114Z,19.6
2023-06-10T02:46:39.213Z,19.6
2023-06-10T02:49:10.052Z,19.7
2023-06-10T02:51:40.686Z,19.6
2023-06-10T02:54:11.815Z,19.6
2023-06-10T02:56:42.115Z,19.5
2023-06-10T02:59:13.064Z,19.6
2023-06-10T03:01:43.978Z,19.6
2023-06-10T03:04:15.263Z,19.4
2023-06-10T03:06:46.384Z,19.4
2023-06-10T03:09:17.362Z,19.3
2023-06-10T03:11:47.804Z,19.3
2023-06-10T03:14:18.804Z,19.4
2023-06-10T03:16:50.287Z,19.3
2023-06-10T03:19:21.376Z,19.4
2023-06-10T03:21:52.559Z,19.4
2023-06-10T03:24:23.899Z,19.5
2023-06-10T03:26:54.727Z,19.6
2023-06-10T03:29:25.501Z,19.4
2023-06-10T03:31:56.187Z,19.4
2023-06-10T03:34:26.862Z,19.4
2023-06-10T03:36:57.721Z,19.5
2023-06-10T03:39:28.771Z,19.5
2023-06-10T03:41:59.434Z,19.5
2023-06-10T03:44:30.245Z,19.7
2023-06-10T03:47:01.049Z,19.7
2023-06-10T03:49:31.952Z,19.7
2023-06-10T03:52:02.206Z,19.6
2023-06-10T03:54:33.594Z,19.7
2023-06-10T03:57:04.502Z,19.7
2023-06-10T03:59:35.078Z,19.7
2023-06-10T04:02:07.072Z,19.7
2023-06-10T04:04:38.110Z,19.7
2023-06-10T04:07:08.740Z,19.7
2023-06-10T04:09:39.825Z,19.7
2023-06-10T04:12:10.647Z,19.8
2023-06-10T04:14:41.105Z,19.9
2023-06-10T04:17:12.088Z,20
2023-06-10T04:19:43.464Z,20.1
2023-06-10T04:22:14.006Z,20.2
2023-06-10T04:24:44.744Z,20.2
2023-06-10T04:27:15.412Z,20.3
2023-06-10T04:29:46.185Z,20.2
2023-06-10T04:32:16.961Z,20.3
2023-06-10T04:34:47.753Z,20.4
2023-06-10T04:37:16.966Z,20.5
2023-06-10T04:39:47.380Z,20.5
2023-06-10T04:42:18.191Z,20.5
2023-06-10T04:44:49.031Z,20.6
2023-06-10T04:47:20.269Z,20.7
2023-06-10T04:49:57.379Z,20.7
2023-06-10T04:52:30.044Z,20.9
2023-06-10T04:55:07.249Z,21
2023-06-10T04:57:37.643Z,21.3
2023-06-10T05:00:08.451Z,21.3
2023-06-10T05:02:38.845Z,21.3
2023-06-10T05:05:09.721Z,21.5
2023-06-10T05:07:40.674Z,21.6
2023-06-10T05:10:12.246Z,21.7
2023-06-10T05:12:43.109Z,21.8
2023-06-10T05:15:14.051Z,21.7
2023-06-10T05:17:45.490Z,21.8
2023-06-10T05:20:16.989Z,22
2023-06-10T05:22:47.454Z,22.1
2023-06-10T05:25:18.211Z,22.2
2023-06-10T05:27:59.056Z,22.4
2023-06-10T05:33:10.454Z,22.6
2023-06-10T05:35:42.159Z,22.6
2023-06-10T05:38:14.713Z,22.6
2023-06-10T05:40:45.963Z,22.8
2023-06-10T05:43:16.897Z,22.9
2023-06-10T05:45:47.785Z,22.9
2023-06-10T05:48:18.837Z,23
2023-06-10T05:51:00.089Z,23.1
2023-06-10T05:53:29.995Z,23.3
2023-06-10T05:56:00.110Z,23.4
2023-06-10T05:58:31.997Z,23.3
2023-06-10T06:01:03.014Z,23.2
2023-06-10T06:03:38.494Z,23.4
2023-06-10T06:06:09.300Z,23.2
2023-06-10T06:08:40.353Z,23.2
2023-06-10T06:11:11.279Z,23
2023-06-10T06:13:44.059Z,23.1
2023-06-10T06:16:27.109Z,23.1
2023-06-10T06:19:05.315Z,23.1
2023-06-10T06:21:36.619Z,23.1
2023-06-10T06:24:08.355Z,23.2
2023-06-10T06:26:39.316Z,23.1
2023-06-10T06:29:13.652Z,23.2
2023-06-10T06:31:46.639Z,23.4
2023-06-10T06:34:18.108Z,23.5
2023-06-10T06:36:49.835Z,23.6
2023-06-10T06:39:20.586Z,23.7
2023-06-10T06:41:51.193Z,23.7
2023-06-10T06:44:21.938Z,23.8
2023-06-10T06:46:54.158Z,23.8
2023-06-10T06:49:24.494Z,23.7
2023-06-10T06:51:54.948Z,23.8
2023-06-10T06:54:26.713Z,23.7
2023-06-10T06:56:55.876Z,23.8
2023-06-10T06:59:26.916Z,23.7
2023-06-10T07:01:57.343Z,23.6
2023-06-10T07:04:27.854Z,23.7
2023-06-10T07:06:58.581Z,23.5
2023-06-10T07:09:29.333Z,23.5
2023-06-10T07:11:59.981Z,23.5
2023-06-10T07:14:30.509Z,23.3
2023-06-10T07:17:01.537Z,23.4
2023-06-10T07:19:32.641Z,23.4
2023-06-10T07:22:04.321Z,23.3
2023-06-10T07:24:35.299Z,23.1
2023-06-10T07:27:06.114Z,23.1
2023-06-10T07:29:36.664Z,23.1
2023-06-10T07:32:06.974Z,23.2
2023-06-10T07:34:37.963Z,22.9
2023-06-10T07:37:08.612Z,23.1
2023-06-10T07:39:40.524Z,23
2023-06-10T07:42:10.972Z,23
2023-06-10T07:44:42.470Z,23
2023-06-10T07:47:13.271Z,23.2
2023-06-10T07:49:44.097Z,23.1
2023-06-10T07:52:13.258Z,23
2023-06-10T07:54:43.570Z,23.1
2023-06-10T07:57:14.617Z,23.4
2023-06-10T07:59:46.615Z,23.7
2023-06-10T08:02:17.100Z,23.9
2023-06-10T08:04:55.673Z,24
2023-06-10T08:07:27.339Z,24.2
2023-06-10T08:10:02.688Z,24.3
2023-06-10T08:12:37.021Z,24.5
2023-06-10T08:15:11.581Z,24.5
2023-06-10T08:17:42.682Z,24.7
2023-06-10T08:20:13.766Z,24.7
2023-06-10T08:22:44.412Z,24.9
2023-06-10T08:25:14.935Z,24.9
2023-06-10T08:27:45.356Z,25
2023-06-10T08:30:16.172Z,25.1
2023-06-10T08:32:47.107Z,25.2
2023-06-10T08:35:17.651Z,25.1
2023-06-10T08:37:49.342Z,25.3
2023-06-10T08:40:20.425Z,25.3
2023-06-10T08:42:50.882Z,25.4
2023-06-10T08:45:21.606Z,25.5
2023-06-10T08:47:52.080Z,25.7
2023-06-10T08:50:21.208Z,25.6
2023-06-10T08:52:52.004Z,25.6
2023-06-10T08:55:27.983Z,25.5
2023-06-10T08:58:00.201Z,25.5
2023-06-10T09:00:38.574Z,25.7
2023-06-10T09:03:10.062Z,25.7
2023-06-10T09:05:47.588Z,25.8
2023-06-10T09:08:18.467Z,25.8
2023-06-10T09:10:49.722Z,25.6
2023-06-10T09:13:23.373Z,25.5
2023-06-10T09:16:01.013Z,25.7
2023-06-10T09:18:33.165Z,26
2023-06-10T09:21:18.146Z,26.1
2023-06-10T09:23:52.953Z,26.2
2023-06-10T09:26:24.406Z,26.2
2023-06-10T09:28:55.891Z,26.3
2023-06-10T09:31:26.997Z,26.5
2023-06-10T09:34:04.474Z,26.6
2023-06-10T09:36:46.370Z,26.6
2023-06-10T09:39:19.238Z,26.6
2023-06-10T09:41:52.185Z,26.7
2023-06-10T09:47:18.382Z,27
2023-06-10T09:49:48.841Z,26.9
2023-06-10T09:52:28.073Z,27
2023-06-10T09:55:02.395Z,27.1
2023-06-10T09:57:39.397Z,26.9
2023-06-10T10:00:10.775Z,26.8
2023-06-10T10:02:41.177Z,27
2023-06-10T10:05:12.138Z,27
2023-06-10T10:07:43.841Z,27
2023-06-10T10:10:13.076Z,27.1
2023-06-10T10:12:44.043Z,27.2
2023-06-10T10:15:14.689Z,27.3
2023-06-10T10:17:47.131Z,27.3
2023-06-10T10:20:18.104Z,27.4
2023-06-10T10:22:49.032Z,27.4
2023-06-10T10:25:21.666Z,27.4
2023-06-10T10:27:53.030Z,27.5
2023-06-10T10:30:23.325Z,27.6
2023-06-10T10:32:54.443Z,27.6
2023-06-10T10:35:26.457Z,27.7
2023-06-10T10:37:59.791Z,27.6
2023-06-10T10:40:31.251Z,27.9
2023-06-10T10:43:02.087Z,27.9
2023-06-10T10:45:32.837Z,28
2023-06-10T10:48:03.602Z,28
2023-06-10T10:53:14.523Z,27.9
2023-06-10T10:55:45.425Z,27.9
2023-06-10T10:58:15.416Z,28
2023-06-10T11:00:52.135Z,27.9
2023-06-10T11:03:22.942Z,27.9
2023-06-10T11:05:52.194Z,28.1
2023-06-10T11:08:22.998Z,28
2023-06-10T11:10:53.800Z,28.1
2023-06-10T11:13:24.143Z,28
2023-06-10T11:15:55.880Z,28
2023-06-10T11:18:27.842Z,28.3
2023-06-10T11:20:58.843Z,28.4
2023-06-10T11:23:29.685Z,28.3
2023-06-10T11:26:01.006Z,28.3
2023-06-10T11:28:31.960Z,28.3
2023-06-10T11:31:02.631Z,28.2
2023-06-10T11:33:33.413Z,28.2
2023-06-10T11:36:04.076Z,28.2
2023-06-10T11:38:35.013Z,28.1
2023-06-10T11:41:05.940Z,28.2
2023-06-10T11:43:42.769Z,28.2
2023-06-10T11:46:13.027Z,28.3
2023-06-10T11:48:43.654Z,28.5
2023-06-10T11:51:14.283Z,28.4
2023-06-10T11:53:44.872Z,28.4
2023-06-10T11:56:16.788Z,28.5
2023-06-10T11:58:47.259Z,28.5
2023-06-10T12:01:28.032Z,28.5
2023-06-10T12:03:48.467Z,28.4
2023-06-10T12:06:18.707Z,28.5
2023-06-10T12:08:49.726Z,28.5
2023-06-10T12:11:18.651Z,28.7
2023-06-10T12:13:49.066Z,28.9
2023-06-10T12:16:19.993Z,29
2023-06-10T12:18:50.337Z,29.1
2023-06-10T12:21:19.566Z,29.3
2023-06-10T12:23:50.096Z,29.4
2023-06-10T12:26:20.780Z,29.6
2023-06-10T12:28:51.607Z,29.5
2023-06-10T12:31:22.451Z,29
2023-06-10T12:33:53.169Z,29.2
2023-06-10T12:36:24.168Z,29.3
2023-06-10T12:38:55.361Z,29.6
2023-06-10T12:41:26.119Z,29.8
2023-06-10T12:43:56.663Z,30
2023-06-10T12:46:28.099Z,30
2023-06-10T12:48:58.644Z,30.1
2023-06-10T12:51:27.588Z,30.1
2023-06-10T12:53:58.025Z,30.1
2023-06-10T12:56:29.725Z,30.1
2023-06-10T12:59:00.276Z,30.1
2023-06-10T13:01:30.662Z,29.9
2023-06-10T13:04:01.399Z,30.1
2023-06-10T13:06:31.288Z,30
2023-06-10T13:09:02.005Z,30.1
2023-06-10T13:11:32.745Z,30.2
2023-06-10T13:14:03.380Z,30.4
2023-06-10T13:16:34.572Z,30.6
2023-06-10T13:19:05.029Z,30.8
2023-06-10T13:21:35.097Z,30.8
2023-06-10T13:24:07.181Z,30.7
2023-06-10T13:26:37.745Z,30.8
2023-06-10T13:29:06.486Z,30.4
2023-06-10T13:31:37.436Z,30.1
2023-06-10T13:34:09.035Z,30.1
2023-06-10T13:36:40.566Z,29.9
2023-06-10T13:39:10.643Z,29.8
2023-06-10T13:41:41.103Z,29.7
2023-06-10T13:44:11.537Z,29.5
2023-06-10T13:46:42.139Z,29.4
2023-06-10T13:49:11.401Z,29.5
2023-06-10T13:51:41.595Z,29.6
2023-06-10T13:54:12.187Z,29.6
2023-06-10T13:56:42.655Z,29.3
2023-06-10T13:59:13.220Z,29.4
2023-06-10T14:01:43.799Z,29.4
2023-06-10T14:04:14.900Z,29.3
2023-06-10T14:06:45.221Z,29.3
2023-06-10T14:09:16.156Z,29.3
2023-06-10T14:11:47.092Z,29.5
2023-06-10T14:14:17.512Z,29.3
2023-06-10T14:16:52.185Z,29.4
2023-06-10T14:19:28.748Z,29.1
2023-06-10T14:21:59.555Z,29.2
2023-06-10T14:24:30.084Z,29.1
2023-06-10T14:27:01.149Z,29
2023-06-10T14:29:31.852Z,28.8
2023-06-10T14:32:03.836Z,28.6
2023-06-10T14:34:33.698Z,28.3
2023-06-10T14:37:04.104Z,28.4
2023-06-10T14:39:34.571Z,28.2
2023-06-10T14:42:05.487Z,28
2023-06-10T14:44:42.334Z,28
2023-06-10T14:47:15.317Z,27.9
2023-06-10T14:49:43.878Z,27.9
2023-06-10T14:52:14.495Z,27.8
2023-06-10T14:54:44.889Z,27.8
2023-06-10T14:57:16.510Z,27.6
2023-06-10T14:59:46.993Z,27.7
2023-06-10T15:02:17.915Z,27.8
2023-06-10T15:04:46.506Z,27.7
2023-06-10T15:07:16.847Z,27.6
2023-06-10T15:09:47.330Z,27.3
2023-06-10T15:12:19.316Z,27.3
2023-06-10T15:14:51.078Z,27.4
2023-06-10T15:17:22.136Z,27.2
2023-06-10T15:19:54.740Z,27.3
2023-06-10T15:22:27.023Z,27.1
2023-06-10T15:24:58.493Z,27.2
2023-06-10T15:27:30.216Z,27.1
2023-06-10T15:30:00.870Z,27.1
2023-06-10T15:32:31.508Z,27
2023-06-10T15:35:04.177Z,27
2023-06-10T15:37:32.983Z,27
2023-06-10T15:40:04.919Z,26.9
2023-06-10T15:42:43.572Z,26.9
2023-06-10T15:45:15.597Z,26.9
2023-06-10T15:47:44.682Z,26.9
2023-06-10T15:50:18.018Z,26.8
2023-06-10T15:52:50.781Z,26.8
2023-06-10T15:55:26.258Z,26.8
2023-06-10T15:57:58.532Z,27
2023-06-10T16:00:29.129Z,26.9
2023-06-10T16:03:06.485Z,26.9
2023-06-10T16:05:36.930Z,26.7
2023-06-10T16:08:08.079Z,26.8
2023-06-10T16:10:38.006Z,26.9
2023-06-10T16:13:08.683Z,26.8
2023-06-10T16:15:39.159Z,26.6
2023-06-10T16:18:10.587Z,26.6
2023-06-10T16:20:41.103Z,26.2
2023-06-10T16:23:10.088Z,26.3
2023-06-10T16:25:40.679Z,26.3
2023-06-10T16:28:11.125Z,26.3
2023-06-10T16:30:41.550Z,26.3
2023-06-10T16:33:12.193Z,26.1
2023-06-10T16:35:42.505Z,26.2
2023-06-10T16:38:13.623Z,26.2
2023-06-10T16:40:44.302Z,26.1
2023-06-10T16:43:15.186Z,26.1
2023-06-10T16:45:45.921Z,26
2023-06-10T16:48:16.321Z,26
2023-06-10T16:50:46.976Z,26
2023-06-10T16:53:17.487Z,26
2023-06-10T16:55:48.105Z,26
2023-06-10T16:58:19.036Z,25.9
2023-06-10T17:00:49.317Z,26
2023-06-10T17:03:20.117Z,25.9
2023-06-10T17:05:50.712Z,25.8
2023-06-10T17:08:21.271Z,25.8
2023-06-10T17:10:51.862Z,25.8
2023-06-10T17:13:22.149Z,25.8
2023-06-10T17:15:52.594Z,25.7
2023-06-10T17:18:23.828Z,25.7
2023-06-10T17:20:54.239Z,25.4
2023-06-10T17:23:24.967Z,25.2
2023-06-10T17:25:54.141Z,25.2
2023-06-10T17:28:23.503Z,25.3
2023-06-10T17:30:54.170Z,25.3
2023-06-10T17:33:24.653Z,25.3
2023-06-10T17:35:55.466Z,25.3
2023-06-10T17:38:26.158Z,25.3
2023-06-10T17:40:57.361Z,25.2
2023-06-10T17:43:27.814Z,25.3
2023-06-10T17:45:58.485Z,25.2
2023-06-10T17:48:28.955Z,25.2
2023-06-10T17:50:59.676Z,25.1
2023-06-10T17:53:30.319Z,25
2023-06-10T17:56:02.146Z,24.9
2023-06-10T17:58:31.330Z,24.9
2023-06-10T18:01:01.624Z,24.7
2023-06-10T18:03:33.983Z,24.7
2023-06-10T18:06:04.270Z,24.8
2023-06-10T18:08:33.282Z,24.5
2023-06-10T18:11:02.338Z,24.4
2023-06-10T18:13:31.544Z,24.5
2023-06-10T18:16:00.262Z,24
2023-06-10T18:18:30.593Z,23.9
2023-06-10T18:21:03.027Z,23.8
2023-06-10T18:23:32.118Z,23.9
2023-06-10T18:26:01.368Z,24
2023-06-10T18:28:32.835Z,24.1
2023-06-10T18:31:03.123Z,24.1
2023-06-10T18:33:32.160Z,24.1
2023-06-10T18:36:02.996Z,23.9
2023-06-10T18:38:34.299Z,24.1
2023-06-10T18:41:04.855Z,24
2023-06-10T18:43:35.602Z,24
2023-06-10T18:46:06.175Z,24.1
2023-06-10T18:48:37.393Z,24.3
2023-06-10T18:51:07.908Z,24
2023-06-10T18:53:38.098Z,24.1
2023-06-10T18:56:08.707Z,24
2023-06-10T18:58:39.399Z,23.8
2023-06-10T19:01:09.965Z,23.9
2023-06-10T19:03:40.205Z,23.8
2023-06-10T19:06:11.710Z,23.8
2023-06-10T19:08:42.516Z,23.9
2023-06-10T19:11:12.708Z,23.6
2023-06-10T19:13:43.007Z,23.7
2023-06-10T19:16:13.354Z,23.6
2023-06-10T19:18:43.975Z,23.7
2023-06-10T19:23:47.384Z,23.5
2023-06-10T19:26:19.697Z,23.6
2023-06-10T19:28:49.900Z,23.6
2023-06-10T19:31:20.519Z,23.6
2023-06-10T19:33:52.653Z,23.7
2023-06-10T19:36:23.438Z,23.7
2023-06-10T19:38:55.137Z,23.7
2023-06-10T19:41:25.646Z,23.7
2023-06-10T19:43:56.349Z,23.7
2023-06-10T19:46:27.427Z,23.7
2023-06-10T19:48:57.813Z,23.6
2023-06-10T19:51:28.623Z,23.7
2023-06-10T19:53:59.011Z,23.8
2023-06-10T19:56:30.548Z,23.7
2023-06-10T19:59:01.777Z,23.6
2023-06-10T20:01:32.513Z,23.6
2023-06-10T20:04:04.673Z,23.4
2023-06-10T20:06:31.165Z,23.5
2023-06-10T20:09:01.730Z,23.4
2023-06-10T20:11:32.051Z,23.3
2023-06-10T20:14:02.777Z,23.2
2023-06-10T20:16:33.230Z,23.3
2023-06-10T20:19:04.281Z,23.2
2023-06-10T20:21:34.486Z,23.2
2023-06-10T20:24:05.292Z,23.2
2023-06-10T20:26:35.780Z,23.2
2023-06-10T20:29:12.335Z,23.1
2023-06-10T20:31:43.144Z,23.1
2023-06-10T20:34:13.707Z,23.1
2023-06-10T20:36:45.222Z,23
2023-06-10T20:39:15.760Z,23.1
2023-06-10T20:41:46.360Z,22.7
2023-06-10T20:44:16.192Z,22.8
2023-06-10T20:46:50.739Z,22.8
2023-06-10T20:49:21.078Z,22.9
2023-06-10T20:51:57.932Z,22.9
2023-06-10T20:54:28.434Z,22.9
2023-06-10T20:56:59.826Z,22.7
2023-06-10T20:59:30.208Z,22.8
2023-06-10T21:02:01.136Z,22.9
2023-06-10T21:04:32.119Z,22.7
2023-06-10T21:07:02.660Z,22.7
2023-06-10T21:09:32.933Z,22.7
2023-06-10T21:12:03.598Z,22.6
2023-06-10T21:14:32.567Z,22.2
2023-06-10T21:17:04.971Z,22.4
2023-06-10T21:19:35.846Z,22.4
2023-06-10T21:22:07.614Z,22.3
2023-06-10T21:24:41.039Z,22.2
2023-06-10T21:27:11.586Z,22.3
2023-06-10T21:29:40.764Z,22
2023-06-10T21:32:11.208Z,21.6
2023-06-10T21:34:41.698Z,21.5
2023-06-10T21:37:11.456Z,21.6
2023-06-10T21:39:41.643Z,21.8
2023-06-10T21:42:12.407Z,21.7
2023-06-10T21:44:41.685Z,21.9
2023-06-10T21:47:12.189Z,21.9
2023-06-10T21:49:43.199Z,21.8
2023-06-10T21:52:12.407Z,21.9
2023-06-10T21:54:43.270Z,21.9
2023-06-10T21:57:13.760Z,21.9
2023-06-10T21:59:45.014Z,21.8
2023-06-10T22:02:15.522Z,21.8
2023-06-10T22:04:46.528Z,21.8
2023-06-10T22:07:17.173Z,21.8
2023-06-10T22:09:47.801Z,21.8
2023-06-10T22:12:19.696Z,21.6
2023-06-10T22:14:50.281Z,21.5
2023-06-10T22:17:22.170Z,21.6
2023-06-10T22:19:52.762Z,21.6
2023-06-10T22:22:23.732Z,21.5
2023-06-10T22:25:02.205Z,21.5
2023-06-10T22:27:32.700Z,21.6
2023-06-10T22:30:03.328Z,21
2023-06-10T22:32:34.242Z,21.1
2023-06-10T22:35:04.913Z,21.2
2023-06-10T22:37:35.632Z,21.3
2023-06-10T22:40:06.268Z,21.3
2023-06-10T22:42:37.110Z,21.3
2023-06-10T22:45:08.222Z,21.4
2023-06-10T22:47:39.007Z,21.3
2023-06-10T22:50:09.659Z,21.3
2023-06-10T22:52:40.977Z,21.1
2023-06-10T22:55:11.900Z,21.1
2023-06-10T22:57:43.258Z,21.2
2023-06-10T23:00:14.180Z,20.9
2023-06-10T23:02:45.079Z,21.1
2023-06-10T23:05:16.070Z,21.1
2023-06-10T23:07:47.249Z,21.2
2023-06-10T23:10:20.967Z,21.3
2023-06-10T23:12:52.643Z,21.2
2023-06-10T23:15:21.557Z,21.1
2023-06-10T23:17:52.044Z,21
2023-06-10T23:20:22.728Z,21
2023-06-10T23:22:53.408Z,21.1
2023-06-10T23:25:24.263Z,21
2023-06-10T23:27:55.159Z,21
2023-06-10T23:30:25.877Z,21
2023-06-10T23:32:56.802Z,21
2023-06-10T23:35:27.326Z,21
2023-06-10T23:37:58.201Z,20.9
2023-06-10T23:40:29.178Z,20.9
2023-06-10T23:43:00.109Z,21
2023-06-10T23:45:31.160Z,20.9
2023-06-10T23:48:01.943Z,20.9
2023-06-10T23:50:32.509Z,20.8
2023-06-10T23:53:03.388Z,20.8
2023-06-10T23:55:33.914Z,20.8
2023-06-10T23:58:04.713Z,20.7
